Time;durP1;ratioP1;P1;durP2;ratioP2;P2;SDS_P1;SDS_P2;PMS_P1;PMS_P2;Temp;Humidity;BMP_temperature;BMP_pressure;BME280_temperature;BME280_humidity;BME280_pressure;Samples;Min_cycle;Max_cycle;Signal;HPM_P1;HPM_P2
2022/10/31 00:00:29;;;;;;;;;;;;;;;12.25;71.84;99583.25;5226777;28;19990;-72
2022/10/31 00:03:19;;;;;;;;;;;;;;;12.15;72.28;99583.25;5226985;28;19928;-70
2022/10/31 00:06:10;;;;;;;;;;;;;;;12.16;71.21;99582.28;5212005;28;19927;-70
2022/10/31 00:09:01;;;;;;;;;;;;;;;12.17;71.73;99587.44;5238002;28;19928;-71
2022/10/31 00:11:51;;;;;;;;;;;;;;;12.16;71.57;99585.78;5232182;28;19950;-70
2022/10/31 00:14:41;;;;;;;;;;;;;;;12.13;71.49;99575.41;5235898;28;19946;-71
2022/10/31 00:17:31;;;;;;;;;;;;;;;12.01;71.63;99579.19;5226788;28;20445;-72
2022/10/31 00:20:20;;;;;;;;;;;;;;;11.98;71.67;99585.59;5226493;28;19947;-71
2022/10/31 00:23:11;;;;;;;;;;;;;;;11.93;72.18;99589.69;5234360;28;19931;-71
2022/10/31 00:26:01;;;;;;;;;;;;;;;11.96;72.01;99590.25;5232259;28;19924;-70
2022/10/31 00:28:52;;;;;;;;;;;;;;;12.01;72.26;99597.78;5245839;28;19973;-71
2022/10/31 00:31:42;;;;;;;;;;;;;;;12.01;71.68;99595.13;5231636;28;19974;-70
2022/10/31 00:34:32;;;;;;;;;;;;;;;11.99;72.57;99589.13;5247355;28;20017;-70
2022/10/31 00:37:22;;;;;;;;;;;;;;;11.96;72.10;99592.06;5235527;28;19971;-71
2022/10/31 00:40:12;;;;;;;;;;;;;;;11.85;71.86;99585.03;5215664;28;19943;-71
2022/10/31 00:43:02;;;;;;;;;;;;;;;11.85;71.79;99593.00;5211123;28;20549;-71
2022/10/31 00:45:53;;;;;;;;;;;;;;;11.79;71.69;99592.69;5210910;28;19927;-72
2022/10/31 00:48:47;;;;;;;;;;;;;;;11.74;72.05;99590.44;5196986;28;20039;-74
2022/10/31 00:51:36;;;;;;;;;;;;;;;11.71;72.67;99585.41;5231243;28;19920;-73
2022/10/31 00:54:27;;;;;;;;;;;;;;;11.70;72.30;99584.56;5232078;28;19930;-72
2022/10/31 00:57:17;;;;;;;;;;;;;;;11.74;71.81;99588.63;5231439;28;20321;-73
2022/10/31 01:00:08;;;;;;;;;;;;;;;11.80;72.34;99581.09;5223220;28;19920;-73
2022/10/31 01:02:58;;;;;;;;;;;;;;;11.70;71.95;99583.72;5230805;28;19966;-73
2022/10/31 01:05:55;;;;;;;;;;;;;;;11.67;71.87;99584.00;5246625;28;19928;-73
2022/10/31 01:08:46;;;;;;;;;;;;;;;11.67;72.81;99584.84;5231008;28;19927;-72
2022/10/31 01:11:36;;;;;;;;;;;;;;;11.58;72.57;99582.16;5246286;28;20051;-72
2022/10/31 01:14:30;;;;;;;;;;;;;;;11.59;72.96;99583.81;5221001;28;19982;-74
2022/10/31 01:17:20;;;;;;;;;;;;;;;11.59;74.76;99578.50;5230123;28;19931;-73
2022/10/31 01:20:12;;;;;;;;;;;;;;;11.71;74.46;99586.25;5231001;28;19928;-72
2022/10/31 01:23:02;;;;;;;;;;;;;;;11.81;73.45;99585.44;5230935;28;19974;-72
2022/10/31 01:25:59;;;;;;;;;;;;;;;11.69;73.49;99577.59;5231065;28;19928;-72
2022/10/31 01:28:53;;;;;;;;;;;;;;;11.76;74.02;99575.22;5236535;28;19927;-73
2022/10/31 01:31:43;;;;;;;;;;;;;;;11.65;73.42;99578.81;5209650;28;19982;-72
2022/10/31 01:34:33;;;;;;;;;;;;;;;11.60;73.55;99578.41;5226277;28;20378;-72
2022/10/31 01:37:24;;;;;;;;;;;;;;;11.71;73.21;99574.78;5211896;28;19921;-72
2022/10/31 01:40:14;;;;;;;;;;;;;;;11.74;73.32;99575.34;5211224;28;20393;-74
2022/10/31 01:43:04;;;;;;;;;;;;;;;11.72;73.38;99572.00;5208710;28;19931;-73
2022/10/31 01:45:54;;;;;;;;;;;;;;;11.51;74.37;99573.88;5245881;28;19927;-73
2022/10/31 01:48:45;;;;;;;;;;;;;;;11.63;73.31;99572.81;5245893;28;20016;-73
2022/10/31 01:51:38;;;;;;;;;;;;;;;11.68;73.79;99575.88;5230040;28;19928;-73
2022/10/31 01:54:31;;;;;;;;;;;;;;;11.59;73.21;99575.84;5230674;28;20022;-72
2022/10/31 01:57:22;;;;;;;;;;;;;;;11.55;73.85;99569.97;5221031;28;19927;-72
2022/10/31 02:00:14;;;;;;;;;;;;;;;11.60;74.50;99564.28;5242282;28;19936;-73
2022/10/31 02:03:05;;;;;;;;;;;;;;;11.59;73.98;99571.41;5209823;28;20058;-72
2022/10/31 02:05:56;;;;;;;;;;;;;;;11.60;73.44;99572.25;5209396;28;19936;-72
2022/10/31 02:08:47;;;;;;;;;;;;;;;11.54;73.53;99573.63;5208167;28;19927;-73
2022/10/31 02:11:37;;;;;;;;;;;;;;;11.51;72.71;99571.22;5231042;28;20053;-73
2022/10/31 02:14:29;;;;;;;;;;;;;;;11.44;72.91;99578.06;5224739;28;20531;-72
2022/10/31 02:17:19;;;;;;;;;;;;;;;11.42;73.12;99570.25;5195767;28;19935;-73
2022/10/31 02:20:10;;;;;;;;;;;;;;;11.51;72.68;99571.22;5195506;28;19928;-70
2022/10/31 02:23:03;;;;;;;;;;;;;;;11.55;72.41;99579.78;5208974;28;19967;-73
2022/10/31 02:25:57;;;;;;;;;;;;;;;11.49;72.05;99571.38;5221297;28;19963;-69
2022/10/31 02:29:17;;;;;;;;;;;;;;;11.50;72.65;99577.53;5215568;28;19927;-71
2022/10/31 02:32:23;;;;;;;;;;;;;;;11.46;72.38;99573.47;5183285;28;19927;-71
2022/10/31 02:35:13;;;;;;;;;;;;;;;11.37;72.59;99574.28;5230051;28;19927;-72
2022/10/31 02:38:03;;;;;;;;;;;;;;;11.37;72.31;99568.97;5210364;28;19927;-72
2022/10/31 02:40:56;;;;;;;;;;;;;;;11.29;72.07;99578.44;5240617;28;19927;-72
2022/10/31 02:44:11;;;;;;;;;;;;;;;11.31;71.93;99575.66;5229514;28;19935;-72
2022/10/31 02:47:33;;;;;;;;;;;;;;;11.22;71.91;99574.63;5229501;28;20085;-70
2022/10/31 02:50:26;;;;;;;;;;;;;;;11.17;71.89;99571.53;5182608;28;19926;-70
2022/10/31 02:53:18;;;;;;;;;;;;;;;11.17;71.92;99571.53;5234225;28;19944;-72
2022/10/31 02:56:12;;;;;;;;;;;;;;;11.08;72.02;99576.81;5208723;28;19947;-71
2022/10/31 02:59:04;;;;;;;;;;;;;;;11.06;72.10;99579.59;5208101;28;19935;-72
2022/10/31 03:01:57;;;;;;;;;;;;;;;11.19;72.82;99568.75;5220619;28;19927;-70
2022/10/31 03:04:56;;;;;;;;;;;;;;;11.22;71.29;99564.00;5229360;28;19943;-71
2022/10/31 03:07:52;;;;;;;;;;;;;;;11.16;71.72;99563.69;5223559;28;20402;-71
2022/10/31 03:10:46;;;;;;;;;;;;;;;10.89;72.50;99559.81;5208253;28;19982;-72
2022/10/31 03:13:58;;;;;;;;;;;;;;;10.65;72.80;99528.28;5211397;28;19927;-70
2022/10/31 03:16:50;;;;;;;;;;;;;;;10.95;72.22;99564.59;5211549;28;20391;-71
2022/10/31 03:19:43;;;;;;;;;;;;;;;10.91;72.51;99568.47;5227775;28;19942;-71
2022/10/31 03:22:35;;;;;;;;;;;;;;;10.84;73.31;99564.69;5229101;28;19969;-71
2022/10/31 03:25:27;;;;;;;;;;;;;;;10.87;73.06;99561.78;5229115;28;19925;-71
2022/10/31 03:28:23;;;;;;;;;;;;;;;10.80;72.92;99565.94;5202725;28;19920;-70
2022/10/31 03:31:16;;;;;;;;;;;;;;;10.82;72.43;99571.91;5242419;28;20005;-70
2022/10/31 03:34:07;;;;;;;;;;;;;;;10.79;72.17;99580.13;5229359;28;19928;-71
2022/10/31 03:37:00;;;;;;;;;;;;;;;10.79;72.37;99577.50;5244182;28;19927;-70
2022/10/31 03:39:51;;;;;;;;;;;;;;;10.87;72.52;99580.34;5228655;28;19927;-70
2022/10/31 03:42:49;;;;;;;;;;;;;;;10.81;72.22;99570.25;5213870;28;19931;-71
2022/10/31 03:45:41;;;;;;;;;;;;;;;10.74;72.55;99577.88;5226725;28;19926;-72
2022/10/31 03:48:32;;;;;;;;;;;;;;;10.85;72.54;99576.97;5228644;28;20295;-70
2022/10/31 03:51:28;;;;;;;;;;;;;;;10.85;72.92;99576.97;5228425;28;19931;-71
2022/10/31 03:54:37;;;;;;;;;;;;;;;10.70;72.29;99571.19;5229070;28;19926;-70
2022/10/31 03:57:33;;;;;;;;;;;;;;;10.67;71.84;99584.69;5216616;28;19932;-71
2022/10/31 04:00:23;;;;;;;;;;;;;;;10.67;72.26;99578.56;5208706;28;19920;-70
2022/10/31 04:03:18;;;;;;;;;;;;;;;10.63;72.11;99580.63;5195629;28;19940;-71
2022/10/31 04:06:15;;;;;;;;;;;;;;;10.66;71.92;99580.38;5227655;28;19946;-71
2022/10/31 04:09:06;;;;;;;;;;;;;;;10.88;71.77;99570.56;5227094;28;19928;-71
2022/10/31 04:11:59;;;;;;;;;;;;;;;10.88;71.77;99568.75;5223906;28;19927;-71
2022/10/31 04:15:05;;;;;;;;;;;;;;;10.70;72.13;99568.53;5232581;28;20034;-70
2022/10/31 04:17:58;;;;;;;;;;;;;;;10.66;72.02;99572.41;5232190;28;20303;-71
2022/10/31 04:20:59;;;;;;;;;;;;;;;10.74;72.54;99569.94;5232198;28;19931;-70
2022/10/31 04:23:49;;;;;;;;;;;;;;;10.82;72.68;99567.44;5229107;28;19928;-71
2022/10/31 04:26:45;;;;;;;;;;;;;;;10.76;72.70;99556.53;5231685;28;20559;-70
2022/10/31 04:29:35;;;;;;;;;;;;;;;10.72;72.35;99560.41;5231530;28;20489;-72
2022/10/31 04:32:26;;;;;;;;;;;;;;;10.84;73.00;99554.06;5217800;28;19924;-73
2022/10/31 04:35:17;;;;;;;;;;;;;;;10.91;72.33;99549.06;5231959;28;19927;-73
2022/10/31 04:38:08;;;;;;;;;;;;;;;10.69;72.35;99550.91;5226369;28;19921;-72
2022/10/31 04:41:00;;;;;;;;;;;;;;;10.59;72.65;99550.00;5214387;28;19928;-73
2022/10/31 04:44:17;;;;;;;;;;;;;;;10.61;72.07;99547.25;5238340;28;19928;-73
2022/10/31 04:47:11;;;;;;;;;;;;;;;10.60;72.43;99540.28;5231191;28;19926;-72
2022/10/31 04:50:02;;;;;;;;;;;;;;;10.56;72.41;99534.34;5230881;28;20075;-72
2022/10/31 04:52:51;;;;;;;;;;;;;;;10.54;72.98;99533.66;5235386;28;20608;-73
2022/10/31 04:55:47;;;;;;;;;;;;;;;10.47;72.58;99524.56;5230938;28;19920;-73
2022/10/31 04:58:44;;;;;;;;;;;;;;;10.29;72.62;99505.72;5226317;28;20044;-72
2022/10/31 05:01:35;;;;;;;;;;;;;;;10.40;73.23;99533.97;5214620;28;20397;-71
2022/10/31 05:04:26;;;;;;;;;;;;;;;10.47;72.41;99528.03;5211460;28;20549;-73
2022/10/31 05:07:16;;;;;;;;;;;;;;;10.49;71.86;99527.91;5210893;28;20019;-72
2022/10/31 05:10:09;;;;;;;;;;;;;;;10.38;72.01;99514.72;5226208;28;20294;-72
2022/10/31 05:13:01;;;;;;;;;;;;;;;10.40;72.21;99528.66;5210944;28;19975;-72
2022/10/31 05:16:10;;;;;;;;;;;;;;;10.21;73.08;99521.41;5219732;28;19944;-72
2022/10/31 05:19:19;;;;;;;;;;;;;;;10.34;72.43;99525.59;5213915;28;19960;-72
2022/10/31 05:22:29;;;;;;;;;;;;;;;10.35;72.46;99516.66;5225818;28;19927;-72
2022/10/31 05:25:20;;;;;;;;;;;;;;;10.32;71.97;99521.38;5210967;28;20352;-72
2022/10/31 05:28:12;;;;;;;;;;;;;;;10.19;72.41;99518.88;5215313;28;19925;-72
2022/10/31 05:31:02;;;;;;;;;;;;;;;10.16;72.47;99520.94;5213309;28;20404;-72
2022/10/31 05:33:54;;;;;;;;;;;;;;;10.16;72.07;99523.59;5210400;28;20393;-72
2022/10/31 05:37:13;;;;;;;;;;;;;;;10.11;72.43;99529.28;5164054;28;19928;-72
2022/10/31 05:40:05;;;;;;;;;;;;;;;10.15;71.87;99517.47;5209825;28;19920;-72
2022/10/31 05:42:58;;;;;;;;;;;;;;;10.13;72.72;99516.72;5217451;28;19920;-72
2022/10/31 05:45:51;;;;;;;;;;;;;;;10.12;72.08;99510.59;5214186;28;19920;-72
2022/10/31 05:49:02;;;;;;;;;;;;;;;10.00;72.85;99505.47;5224933;28;20568;-73
2022/10/31 05:52:11;;;;;;;;;;;;;;;9.97;72.76;99506.59;5212580;28;19951;-72
2022/10/31 05:55:09;;;;;;;;;;;;;;;9.96;72.47;99514.66;5210436;28;20383;-73
2022/10/31 05:58:03;;;;;;;;;;;;;;;10.19;72.07;99518.03;5216429;28;20005;-71
2022/10/31 06:00:56;;;;;;;;;;;;;;;10.06;71.62;99510.28;5209751;28;20003;-73
2022/10/31 06:03:46;;;;;;;;;;;;;;;10.07;72.51;99510.16;5209092;28;20398;-72
2022/10/31 06:06:38;;;;;;;;;;;;;;;9.98;71.92;99515.38;5220048;28;19930;-73
2022/10/31 06:09:29;;;;;;;;;;;;;;;9.87;72.79;99519.75;5209588;28;19934;-73
2022/10/31 06:12:20;;;;;;;;;;;;;;;9.96;72.99;99510.19;5220217;28;20065;-73
2022/10/31 06:15:29;;;;;;;;;;;;;;;10.08;72.60;99509.19;5191904;28;19940;-74
2022/10/31 06:18:24;;;;;;;;;;;;;;;9.95;72.57;99507.69;5188770;28;19970;-73
2022/10/31 06:21:16;;;;;;;;;;;;;;;9.97;72.52;99509.25;5233368;28;19928;-73
2022/10/31 06:24:08;;;;;;;;;;;;;;;10.05;72.78;99508.59;5189880;28;20002;-71
2022/10/31 06:27:17;;;;;;;;;;;;;;;9.99;72.86;99498.50;5230862;28;19993;-72
2022/10/31 06:30:08;;;;;;;;;;;;;;;10.06;72.78;99499.69;5229589;28;19932;-70
2022/10/31 06:33:03;;;;;;;;;;;;;;;10.06;73.18;99511.09;5229778;28;20389;-72
2022/10/31 06:35:53;;;;;;;;;;;;;;;10.15;73.19;99509.50;5229743;28;19931;-71
2022/10/31 06:38:44;;;;;;;;;;;;;;;10.26;74.00;99517.41;5229560;28;19974;-72
2022/10/31 06:41:36;;;;;;;;;;;;;;;10.23;73.41;99512.38;5220480;28;19933;-71
2022/10/31 06:44:26;;;;;;;;;;;;;;;10.22;73.07;99515.97;5215865;28;20394;-71
2022/10/31 06:47:40;;;;;;;;;;;;;;;10.21;73.26;99516.94;5220592;28;20108;-70
2022/10/31 06:50:49;;;;;;;;;;;;;;;10.24;73.10;99521.16;5228832;28;20083;-70
2022/10/31 06:53:43;;;;;;;;;;;;;;;10.27;72.94;99529.72;5220947;28;20044;-69
2022/10/31 06:56:35;;;;;;;;;;;;;;;10.44;73.13;99525.66;5222839;28;20619;-71
2022/10/31 06:59:26;;;;;;;;;;;;;;;10.60;72.88;99521.72;5223511;28;19927;-71
2022/10/31 07:02:42;;;;;;;;;;;;;;;10.68;73.10;99524.53;5216413;28;19932;-71
2022/10/31 07:05:33;;;;;;;;;;;;;;;10.74;73.06;99527.50;5210634;28;19979;-70
2022/10/31 07:08:25;;;;;;;;;;;;;;;10.82;73.06;99524.16;5228342;28;19921;-69
2022/10/31 07:11:15;;;;;;;;;;;;;;;10.76;72.77;99525.56;5208328;28;19921;-70
2022/10/31 07:14:05;;;;;;;;;;;;;;;10.77;72.46;99527.22;5215782;28;19939;-71
2022/10/31 07:16:55;;;;;;;;;;;;;;;10.78;72.66;99526.25;5239885;28;19924;-70
2022/10/31 07:19:51;;;;;;;;;;;;;;;10.85;72.67;99533.69;5214931;28;19938;-72
2022/10/31 07:22:41;;;;;;;;;;;;;;;10.91;73.66;99533.16;5205953;28;19924;-71
2022/10/31 07:25:34;;;;;;;;;;;;;;;11.09;73.21;99531.53;5221257;28;19920;-70
2022/10/31 07:28:43;;;;;;;;;;;;;;;11.12;72.99;99533.09;5213465;28;19988;-71
2022/10/31 07:31:36;;;;;;;;;;;;;;;11.19;73.48;99542.19;5234892;28;19925;-71
2022/10/31 07:34:32;;;;;;;;;;;;;;;11.31;73.19;99540.28;5228762;28;19931;-74
2022/10/31 07:37:37;;;;;;;;;;;;;;;11.40;72.98;99536.84;5229656;28;19927;-70
2022/10/31 07:40:28;;;;;;;;;;;;;;;11.58;72.65;99543.16;5228046;28;19920;-72
2022/10/31 07:43:18;;;;;;;;;;;;;;;11.80;72.91;99534.09;5219386;28;20345;-70
2022/10/31 07:46:37;;;;;;;;;;;;;;;12.29;71.89;99539.47;5232508;28;19928;-73
2022/10/31 07:50:02;;;;;;;;;;;;;;;12.41;72.45;99544.47;5216725;28;19960;-72
2022/10/31 07:53:11;;;;;;;;;;;;;;;12.62;71.13;99528.34;5225863;28;19972;-68
2022/10/31 07:56:33;;;;;;;;;;;;;;;12.76;71.53;99528.88;5205391;28;20011;-71
2022/10/31 07:59:25;;;;;;;;;;;;;;;12.96;70.99;99533.13;5196698;28;19920;-72
2022/10/31 08:02:16;;;;;;;;;;;;;;;13.34;69.72;99533.97;5199633;28;19951;-72
2022/10/31 08:05:09;;;;;;;;;;;;;;;13.54;68.84;99537.38;5230551;28;19928;-72
2022/10/31 08:08:19;;;;;;;;;;;;;;;13.60;69.06;99534.09;5225338;28;19927;-72
2022/10/31 08:11:10;;;;;;;;;;;;;;;13.80;68.61;99525.00;5209019;28;20015;-72
2022/10/31 08:14:01;;;;;;;;;;;;;;;13.88;67.58;99526.91;5209185;28;19927;-71
2022/10/31 08:16:52;;;;;;;;;;;;;;;13.94;69.00;99531.66;5197152;28;19970;-72
2022/10/31 08:19:42;;;;;;;;;;;;;;;13.94;68.25;99531.66;5210866;28;19935;-71
2022/10/31 08:22:35;;;;;;;;;;;;;;;14.32;67.94;99530.47;5211784;28;19927;-71
2022/10/31 08:25:30;;;;;;;;;;;;;;;14.42;67.00;99522.38;5212653;28;19928;-70
2022/10/31 08:28:24;;;;;;;;;;;;;;;14.42;66.91;99524.19;5215251;28;20026;-72
2022/10/31 08:31:16;;;;;;;;;;;;;;;14.59;66.64;99525.19;5212998;28;20050;-70
2022/10/31 08:34:06;;;;;;;;;;;;;;;14.65;66.66;99525.41;5227656;28;20457;-73
2022/10/31 08:37:22;;;;;;;;;;;;;;;14.80;67.04;99525.63;5215719;28;19927;-73
2022/10/31 08:40:16;;;;;;;;;;;;;;;14.63;66.82;99510.53;5198698;28;19995;-72
2022/10/31 08:43:16;;;;;;;;;;;;;;;14.65;67.33;99514.72;5211748;28;20470;-74
2022/10/31 08:46:06;;;;;;;;;;;;;;;14.88;66.87;99504.34;5211489;28;19924;-73
2022/10/31 08:48:56;;;;;;;;;;;;;;;14.92;67.29;99511.03;5208678;28;19929;-72
2022/10/31 08:51:49;;;;;;;;;;;;;;;14.92;67.79;99500.34;5207422;28;19927;-72
2022/10/31 08:54:42;;;;;;;;;;;;;;;15.09;67.56;99501.25;5209987;28;19944;-72
2022/10/31 08:57:55;;;;;;;;;;;;;;;15.21;67.45;99501.81;5226225;28;20461;-72
2022/10/31 09:00:47;;;;;;;;;;;;;;;15.34;66.81;99502.22;5230911;28;20290;-73
2022/10/31 09:03:40;;;;;;;;;;;;;;;15.50;67.53;99496.06;5210269;28;19932;-73
2022/10/31 09:06:30;;;;;;;;;;;;;;;15.68;66.65;99491.47;5225973;28;19942;-72
2022/10/31 09:09:21;;;;;;;;;;;;;;;15.62;66.84;99492.06;5210235;28;19927;-73
2022/10/31 09:12:11;;;;;;;;;;;;;;;15.69;67.25;99487.81;5207775;28;19935;-74
2022/10/31 09:15:25;;;;;;;;;;;;;;;15.72;66.09;99491.97;5230560;28;19921;-72
2022/10/31 09:18:31;;;;;;;;;;;;;;;15.63;65.74;99493.78;5210166;28;20589;-73
2022/10/31 09:21:22;;;;;;;;;;;;;;;15.85;66.52;99486.13;5209090;28;19967;-73
2022/10/31 09:24:12;;;;;;;;;;;;;;;15.95;65.50;99489.47;5209795;28;20063;-73
2022/10/31 09:27:04;;;;;;;;;;;;;;;15.91;65.79;99488.97;5220938;28;19931;-73
2022/10/31 09:29:58;;;;;;;;;;;;;;;16.22;65.19;99493.66;5230857;28;19941;-73
2022/10/31 09:32:54;;;;;;;;;;;;;;;16.32;65.19;99482.78;5230907;28;20037;-73
2022/10/31 09:35:45;;;;;;;;;;;;;;;16.44;66.00;99484.94;5231095;28;20034;-73
2022/10/31 09:38:36;;;;;;;;;;;;;;;16.55;64.86;99485.59;5221666;28;19928;-73
2022/10/31 09:41:33;;;;;;;;;;;;;;;16.81;65.21;99483.56;5220212;28;20038;-73
2022/10/31 09:44:29;;;;;;;;;;;;;;;16.94;63.97;99476.84;5230605;28;20314;-73
2022/10/31 09:47:32;;;;;;;;;;;;;;;16.89;63.57;99470.16;5245923;28;19932;-73
2022/10/31 09:50:54;;;;;;;;;;;;;;;17.03;64.25;99470.44;5213501;28;19927;-73
2022/10/31 09:54:10;;;;;;;;;;;;;;;17.00;63.21;99465.44;5240824;28;20532;-73
2022/10/31 09:57:01;;;;;;;;;;;;;;;17.03;63.59;99465.09;5217943;28;20025;-73
2022/10/31 09:59:51;;;;;;;;;;;;;;;17.12;63.19;99464.06;5209662;28;19943;-73
2022/10/31 10:02:47;;;;;;;;;;;;;;;17.28;62.87;99463.13;5210427;28;20014;-72
2022/10/31 10:05:42;;;;;;;;;;;;;;;17.35;61.32;99464.94;5225047;28;19943;-71
2022/10/31 10:08:42;;;;;;;;;;;;;;;17.46;60.54;99463.69;5223339;28;19928;-71
2022/10/31 10:12:07;;;;;;;;;;;;;;;17.42;62.06;99464.19;5220647;28;19974;-72
2022/10/31 10:14:57;;;;;;;;;;;;;;;17.45;63.19;99470.06;5224849;28;19928;-72
2022/10/31 10:18:00;;;;;;;;;;;;;;;17.45;63.64;99469.22;5224817;28;19928;-72
2022/10/31 10:21:09;;;;;;;;;;;;;;;17.35;62.97;99458.72;5209716;28;19921;-72
2022/10/31 10:24:18;;;;;;;;;;;;;;;17.41;61.38;99459.88;5231200;28;19927;-72
2022/10/31 10:27:19;;;;;;;;;;;;;;;17.37;62.00;99462.06;5224578;28;20058;-71
2022/10/31 10:30:20;;;;;;;;;;;;;;;17.36;61.49;99463.09;5230075;28;20444;-71
2022/10/31 10:33:12;;;;;;;;;;;;;;;17.29;62.41;99459.44;5215355;28;20013;-72
2022/10/31 10:36:09;;;;;;;;;;;;;;;17.46;62.20;99452.13;5225609;28;20307;-72
2022/10/31 10:39:02;;;;;;;;;;;;;;;17.21;63.01;99446.06;5231189;28;20389;-71
2022/10/31 10:48:36;;;;;;;;;;;;;;;17.65;63.09;99430.22;5223720;28;20422;-72
2022/10/31 10:51:31;;;;;;;;;;;;;;;17.58;62.46;99432.78;5223402;28;19943;-72
2022/10/31 10:55:00;;;;;;;;;;;;;;;17.76;62.71;99429.84;5221079;28;19994;-72
2022/10/31 10:57:54;;;;;;;;;;;;;;;17.88;62.05;99426.72;5244510;28;20009;-72
2022/10/31 11:00:49;;;;;;;;;;;;;;;18.01;61.82;99419.75;5230702;28;19921;-71
2022/10/31 11:03:40;;;;;;;;;;;;;;;17.89;62.34;99418.50;5224289;28;19944;-72
2022/10/31 11:06:30;;;;;;;;;;;;;;;18.04;62.18;99411.31;5223762;28;19927;-73
2022/10/31 11:09:20;;;;;;;;;;;;;;;17.98;62.36;99411.19;5208732;28;19936;-73
2022/10/31 11:12:16;;;;;;;;;;;;;;;18.00;62.35;99399.28;5223058;28;20452;-72
2022/10/31 11:15:21;;;;;;;;;;;;;;;18.22;60.83;99396.75;5234346;28;19931;-72
2022/10/31 11:18:19;;;;;;;;;;;;;;;18.15;61.45;99393.94;5202813;28;19943;-73
2022/10/31 11:21:25;;;;;;;;;;;;;;;18.02;62.85;99380.34;5202866;28;19935;-73
2022/10/31 11:24:17;;;;;;;;;;;;;;;18.18;61.29;99377.50;5187956;28;20513;-72
2022/10/31 11:27:13;;;;;;;;;;;;;;;18.27;61.19;99370.16;5187350;28;19955;-72
2022/10/31 11:30:06;;;;;;;;;;;;;;;18.32;60.47;99370.47;5230070;28;19964;-70
2022/10/31 11:32:56;;;;;;;;;;;;;;;18.18;62.17;99368.56;5244331;28;20594;-72
2022/10/31 11:35:47;;;;;;;;;;;;;;;18.25;62.56;99362.31;5244683;28;19920;-73
2022/10/31 11:38:41;;;;;;;;;;;;;;;18.35;62.59;99358.53;5244295;28;19925;-72
2022/10/31 11:41:35;;;;;;;;;;;;;;;18.44;63.13;99352.88;5240772;28;19920;-72
2022/10/31 11:44:27;;;;;;;;;;;;;;;18.50;62.19;99348.59;5228656;28;19921;-72
2022/10/31 11:47:22;;;;;;;;;;;;;;;18.73;60.22;99356.56;5223150;28;20062;-72
2022/10/31 11:50:19;;;;;;;;;;;;;;;18.50;61.88;99346.75;5223316;28;19920;-69
2022/10/31 11:53:21;;;;;;;;;;;;;;;18.52;62.35;99339.34;5208404;28;19990;-72
2022/10/31 11:56:15;;;;;;;;;;;;;;;18.53;62.78;99335.63;5222120;28;19966;-72
2022/10/31 11:59:15;;;;;;;;;;;;;;;18.68;62.64;99330.25;5216954;28;20473;-72
2022/10/31 12:02:18;;;;;;;;;;;;;;;18.76;62.97;99324.78;5236230;28;20019;-71
2022/10/31 12:05:17;;;;;;;;;;;;;;;18.67;61.67;99325.06;5218075;28;19928;-71
2022/10/31 12:08:09;;;;;;;;;;;;;;;18.84;62.19;99317.63;5208143;28;19920;-71
2022/10/31 12:11:06;;;;;;;;;;;;;;;18.96;62.83;99321.50;5208895;28;19927;-71
2022/10/31 12:13:56;;;;;;;;;;;;;;;18.92;62.39;99323.75;5231471;28;20401;-71
2022/10/31 12:16:55;;;;;;;;;;;;;;;18.97;61.94;99324.03;5223158;28;20022;-71
2022/10/31 12:19:54;;;;;;;;;;;;;;;19.02;60.33;99318.06;5223113;28;19942;-71
2022/10/31 12:23:04;;;;;;;;;;;;;;;19.01;62.09;99311.84;5223264;28;19927;-71
2022/10/31 12:26:14;;;;;;;;;;;;;;;19.03;62.36;99311.66;5225760;28;19994;-71
2022/10/31 12:29:14;;;;;;;;;;;;;;;19.09;61.31;99302.00;5232986;28;19987;-71
2022/10/31 12:32:04;;;;;;;;;;;;;;;19.17;59.60;99299.19;5240006;28;19924;-71
2022/10/31 12:35:09;;;;;;;;;;;;;;;19.10;60.61;99282.16;5228320;28;19920;-71
2022/10/31 12:37:59;;;;;;;;;;;;;;;19.16;60.54;99287.59;5218024;28;20386;-71
2022/10/31 12:41:10;;;;;;;;;;;;;;;19.20;60.32;99278.16;5231482;28;20020;-71
2022/10/31 12:44:12;;;;;;;;;;;;;;;19.24;59.87;99275.91;5222317;28;19925;-71
2022/10/31 12:47:20;;;;;;;;;;;;;;;19.32;60.53;99259.63;5235033;28;20005;-71
2022/10/31 12:50:13;;;;;;;;;;;;;;;19.00;59.68;99255.59;5231802;28;20435;-71
2022/10/31 12:53:13;;;;;;;;;;;;;;;19.22;59.34;99264.50;5247144;28;19991;-71
2022/10/31 12:56:12;;;;;;;;;;;;;;;19.18;61.58;99261.38;5247837;28;19920;-71
2022/10/31 12:59:14;;;;;;;;;;;;;;;19.22;60.10;99253.75;5233430;28;19928;-71
2022/10/31 13:02:15;;;;;;;;;;;;;;;19.15;61.51;99258.25;5238168;28;19928;-71
2022/10/31 13:05:25;;;;;;;;;;;;;;;19.06;60.56;99254.00;5231810;28;19920;-71
2022/10/31 13:08:35;;;;;;;;;;;;;;;19.06;61.37;99244.09;5231670;28;19930;-71
2022/10/31 13:11:27;;;;;;;;;;;;;;;19.09;60.20;99226.75;5243153;28;19924;-71
2022/10/31 13:14:17;;;;;;;;;;;;;;;19.08;60.98;99222.41;5237107;28;19928;-71
2022/10/31 13:17:15;;;;;;;;;;;;;;;19.03;61.20;99217.59;5219630;28;19921;-71
2022/10/31 13:20:13;;;;;;;;;;;;;;;19.05;61.40;99218.25;5246321;28;19977;-71
2022/10/31 13:23:08;;;;;;;;;;;;;;;19.00;62.39;99207.22;5222083;28;19927;-71
2022/10/31 13:26:14;;;;;;;;;;;;;;;19.00;63.08;99215.28;5225247;28;20456;-71
2022/10/31 13:29:11;;;;;;;;;;;;;;;18.93;62.19;99203.66;5221044;28;19925;-71
2022/10/31 13:32:05;;;;;;;;;;;;;;;18.97;61.32;99195.03;5246151;28;20378;-71
2022/10/31 13:34:56;;;;;;;;;;;;;;;18.80;61.18;99190.09;5245907;28;19932;-71
2022/10/31 13:37:52;;;;;;;;;;;;;;;18.84;61.68;99181.47;5245884;28;19927;-71
2022/10/31 13:40:53;;;;;;;;;;;;;;;18.92;61.49;99170.59;5241671;28;20022;-71
2022/10/31 13:44:02;;;;;;;;;;;;;;;18.95;61.14;99180.13;5218643;28;19955;-70
2022/10/31 13:46:56;;;;;;;;;;;;;;;18.97;60.94;99178.06;5225403;28;19928;-71
2022/10/31 13:49:46;;;;;;;;;;;;;;;19.08;61.31;99190.16;5224768;28;20320;-71
2022/10/31 13:52:37;;;;;;;;;;;;;;;19.21;62.78;99196.47;5224899;28;19944;-71
2022/10/31 13:55:36;;;;;;;;;;;;;;;19.29;61.77;99200.03;5228074;28;19920;-71
2022/10/31 13:58:27;;;;;;;;;;;;;;;19.52;61.62;99192.56;5237151;28;20066;-71
2022/10/31 14:01:24;;;;;;;;;;;;;;;19.57;61.01;99200.03;5230455;28;19973;-71
2022/10/31 14:04:20;;;;;;;;;;;;;;;19.51;60.19;99188.22;5245643;28;19935;-71
2022/10/31 14:07:16;;;;;;;;;;;;;;;19.51;59.54;99190.91;5245458;28;20025;-71
2022/10/31 14:10:19;;;;;;;;;;;;;;;19.50;60.10;99189.22;5218795;28;20101;-71
2022/10/31 14:13:20;;;;;;;;;;;;;;;19.38;60.55;99183.56;5230265;28;19927;-71
2022/10/31 14:16:24;;;;;;;;;;;;;;;19.50;59.92;99170.41;5230284;28;19971;-71
2022/10/31 14:19:16;;;;;;;;;;;;;;;19.36;60.88;99169.47;5210752;28;20121;-71
2022/10/31 14:22:19;;;;;;;;;;;;;;;19.08;61.43;99165.97;5223615;28;19958;-71
2022/10/31 14:25:27;;;;;;;;;;;;;;;19.02;61.76;99162.19;5235713;28;20009;-71
2022/10/31 14:28:35;;;;;;;;;;;;;;;18.84;62.75;99159.13;5243992;28;20027;-71
2022/10/31 14:31:35;;;;;;;;;;;;;;;18.76;62.98;99163.63;5246043;28;19951;-70
2022/10/31 14:34:37;;;;;;;;;;;;;;;18.68;63.14;99150.31;5247291;28;20021;-71
2022/10/31 14:37:46;;;;;;;;;;;;;;;18.60;63.12;99146.91;5239566;28;19928;-71
2022/10/31 14:40:39;;;;;;;;;;;;;;;18.45;63.50;99155.03;5224793;28;19927;-70
2022/10/31 14:43:30;;;;;;;;;;;;;;;18.56;63.05;99143.78;5224692;28;20390;-71
2022/10/31 14:46:38;;;;;;;;;;;;;;;18.53;63.17;99152.22;5224333;28;19927;-71
2022/10/31 14:49:34;;;;;;;;;;;;;;;18.46;63.74;99146.75;5223557;28;19927;-70
2022/10/31 14:52:25;;;;;;;;;;;;;;;18.45;63.96;99149.66;5213668;28;20551;-71
2022/10/31 14:55:15;;;;;;;;;;;;;;;18.43;64.29;99146.31;5208914;28;19924;-71
2022/10/31 14:58:07;;;;;;;;;;;;;;;18.40;64.42;99141.31;5223619;28;20066;-70
2022/10/31 15:00:57;;;;;;;;;;;;;;;18.39;64.42;99140.50;5216381;28;19935;-71
2022/10/31 15:03:47;;;;;;;;;;;;;;;18.35;64.63;99138.41;5228988;28;19929;-71
2022/10/31 15:07:00;;;;;;;;;;;;;;;18.28;65.16;99133.78;5244477;28;19971;-70
2022/10/31 15:10:01;;;;;;;;;;;;;;;18.27;66.17;99142.84;5228971;28;20013;-71
2022/10/31 15:12:51;;;;;;;;;;;;;;;18.20;65.84;99144.63;5238709;28;20070;-71
2022/10/31 15:15:42;;;;;;;;;;;;;;;18.18;65.40;99137.78;5232785;28;19947;-70
2022/10/31 15:18:34;;;;;;;;;;;;;;;18.15;65.00;99139.00;5222253;28;20410;-70
2022/10/31 15:21:28;;;;;;;;;;;;;;;18.10;66.20;99137.91;5231648;28;19927;-71
2022/10/31 15:24:18;;;;;;;;;;;;;;;18.11;66.43;99136.88;5208995;28;19991;-71